Time;durP1;ratioP1;P1;durP2;ratioP2;P2;SDS_P1;SDS_P2;PMS_P1;PMS_P2;Temp;Humidity;BMP_temperature;BMP_pressure;BME280_temperature;BME280_humidity;BME280_pressure;Samples;Min_cycle;Max_cycle;Signal;HPM_P1;HPM_P2
2023/07/16 00:00:51;;;;;;;2.47;1.65;;;;;;;19.28;76.20;100721.50;4919238;29;20039;-71
2023/07/16 00:03:17;;;;;;;3.53;1.60;;;;;;;19.24;76.20;100711.66;4934118;29;20035;-73
2023/07/16 00:05:43;;;;;;;8.40;1.90;;;;;;;19.21;76.93;100723.94;4918643;29;20043;-72
2023/07/16 00:08:09;;;;;;;2.88;1.30;;;;;;;19.19;77.05;100714.53;4948653;28;20050;-73
2023/07/16 00:10:37;;;;;;;2.95;1.55;;;;;;;19.17;76.99;100698.59;4939946;29;20042;-71
2023/07/16 00:13:04;;;;;;;3.05;1.50;;;;;;;19.19;77.09;100703.69;4932506;29;20027;-74
2023/07/16 00:15:30;;;;;;;3.67;1.63;;;;;;;19.16;76.58;100690.75;4929145;29;20103;-72
2023/07/16 00:17:55;;;;;;;4.55;1.60;;;;;;;19.12;77.35;100665.41;4923072;29;20031;-73
2023/07/16 00:20:23;;;;;;;3.15;1.42;;;;;;;19.11;76.53;100672.75;4914555;29;20050;-72
2023/07/16 00:22:50;;;;;;;4.80;1.45;;;;;;;19.11;77.82;100713.47;4907243;29;20159;-73
2023/07/16 00:25:16;;;;;;;3.80;1.77;;;;;;;19.09;77.19;100721.13;4936100;28;20051;-73
2023/07/16 00:27:42;;;;;;;4.68;2.00;;;;;;;19.10;77.37;100736.28;4919558;29;20047;-73
2023/07/16 00:30:08;;;;;;;5.95;1.77;;;;;;;19.13;77.55;100743.78;4904599;29;20130;-74
2023/07/16 00:32:34;;;;;;;3.72;1.80;;;;;;;19.09;78.07;100746.34;4949519;28;20047;-72
2023/07/16 00:35:01;;;;;;;3.70;1.42;;;;;;;19.12;77.81;100754.97;4929195;28;20063;-71
2023/07/16 00:37:27;;;;;;;3.35;1.50;;;;;;;19.11;77.40;100759.63;4932751;29;20031;-75
2023/07/16 00:39:53;;;;;;;3.25;1.42;;;;;;;19.12;77.66;100757.69;4913330;29;20046;-72
2023/07/16 00:42:19;;;;;;;4.15;1.60;;;;;;;19.09;78.54;100772.69;4919249;29;20071;-73
2023/07/16 00:44:45;;;;;;;3.80;1.90;;;;;;;19.04;77.95;100770.19;4934844;28;20537;-73
2023/07/16 00:47:11;;;;;;;2.85;1.60;;;;;;;19.04;77.63;100770.19;4918553;29;20621;-73
2023/07/16 00:49:39;;;;;;;2.88;1.80;;;;;;;19.05;78.28;100760.91;4936803;29;20036;-72
2023/07/16 00:52:07;;;;;;;2.75;1.38;;;;;;;19.02;78.30;100762.34;4891613;29;20511;-72
2023/07/16 00:54:33;;;;;;;5.50;1.88;;;;;;;19.05;78.03;100780.72;4912404;29;20492;-73
2023/07/16 00:57:00;;;;;;;4.13;1.40;;;;;;;19.05;77.63;100786.13;4890394;29;20035;-73
2023/07/16 00:59:26;;;;;;;3.00;1.50;;;;;;;19.06;77.93;100776.88;4917442;29;20046;-73
2023/07/16 01:01:51;;;;;;;3.15;1.33;;;;;;;19.04;77.76;100759.31;4909325;29;20035;-72
2023/07/16 01:04:17;;;;;;;2.45;1.30;;;;;;;19.02;77.48;100739.84;4928717;29;20063;-72
2023/07/16 01:06:55;;;;;;;2.10;1.60;;;;;;;19.02;78.13;100729.78;4921380;29;20479;-72
2023/07/16 01:09:22;;;;;;;3.50;1.38;;;;;;;18.97;78.03;100731.91;4904878;29;20556;-71
2023/07/16 01:11:49;;;;;;;3.45;1.50;;;;;;;18.95;78.38;100720.56;4938586;29;20074;-71
2023/07/16 01:14:18;;;;;;;2.13;1.38;;;;;;;18.94;77.53;100756.97;4914618;29;20041;-73
2023/07/16 01:16:44;;;;;;;2.88;1.50;;;;;;;18.92;77.23;100789.84;4931904;29;20035;-75
2023/07/16 01:19:10;;;;;;;3.03;1.40;;;;;;;18.93;77.40;100787.94;4899165;29;20050;-71
2023/07/16 01:21:55;;;;;;;2.38;1.60;;;;;;;18.93;77.58;100780.59;4918515;29;20035;-72
2023/07/16 01:24:30;;;;;;;2.83;1.40;;;;;;;18.92;76.92;100770.06;4938634;28;20046;-74
2023/07/16 01:27:28;;;;;;;3.85;1.40;;;;;;;18.91;78.57;100757.63;4925572;29;20441;-73
2023/07/16 01:30:05;;;;;;;3.95;1.35;;;;;;;18.85;78.88;100739.94;4938169;29;20046;-73
2023/07/16 01:32:31;;;;;;;11.30;1.73;;;;;;;18.83;78.49;100737.50;4914148;29;20043;-71
2023/07/16 01:35:02;;;;;;;2.22;1.13;;;;;;;18.79;78.51;100742.81;4933009;28;20033;-74
2023/07/16 01:37:30;;;;;;;2.85;1.17;;;;;;;18.78;78.89;100760.22;4928151;29;20054;-73
2023/07/16 01:39:55;;;;;;;2.97;1.30;;;;;;;18.76;78.85;100770.59;4914757;29;20031;-71
2023/07/16 01:42:22;;;;;;;4.03;1.52;;;;;;;18.75;78.22;100779.84;4951984;28;20178;-73
2023/07/16 01:44:48;;;;;;;2.80;1.63;;;;;;;18.76;77.48;100778.75;4935432;28;20086;-72
2023/07/16 01:47:48;;;;;;;2.75;1.30;;;;;;;18.77;77.26;100772.19;4914992;29;20035;-71
2023/07/16 01:50:14;;;;;;;2.42;1.20;;;;;;;18.76;78.40;100765.16;4884526;29;20055;-72
2023/07/16 01:52:39;;;;;;;3.40;1.20;;;;;;;18.75;77.87;100784.47;4945985;28;20066;-72
2023/07/16 01:55:06;;;;;;;3.50;1.30;;;;;;;18.73;78.18;100768.50;4926202;28;20063;-74
2023/07/16 01:57:32;;;;;;;5.22;1.55;;;;;;;18.69;78.09;100764.84;4933129;29;20031;-73
2023/07/16 01:59:58;;;;;;;3.78;1.40;;;;;;;18.66;78.52;100770.09;4912300;29;20129;-71
2023/07/16 02:02:23;;;;;;;3.42;1.20;;;;;;;18.62;77.89;100783.50;4930159;29;20028;-74
2023/07/16 02:04:49;;;;;;;;;;;;;;;18.62;79.02;100780.78;4933714;29;21196;-74
2023/07/16 02:07:15;;;;;;;4.20;1.35;;;;;;;18.58;77.40;100801.56;4916344;29;19922;-73
2023/07/16 02:09:40;;;;;;;;;;;;;;;18.61;79.47;100800.09;4902257;29;20106;-73
2023/07/16 02:12:06;;;;;;;2.70;1.25;;;;;;;18.57;78.34;100807.31;4926790;29;20825;-71
2023/07/16 02:14:32;;;;;;;4.25;1.75;;;;;;;18.55;77.80;100796.75;4937165;28;20054;-73
2023/07/16 02:16:58;;;;;;;3.03;1.30;;;;;;;18.57;77.63;100778.28;4911004;29;20044;-74
2023/07/16 02:19:25;;;;;;;3.83;1.20;;;;;;;18.57;78.41;100780.97;4915032;29;20032;-74
2023/07/16 02:21:51;;;;;;;2.80;1.48;;;;;;;18.54;77.98;100781.59;4923508;29;20052;-73
2023/07/16 02:24:17;;;;;;;3.92;1.50;;;;;;;18.48;76.99;100769.34;4905269;29;20047;-73
2023/07/16 02:26:42;;;;;;;3.47;2.00;;;;;;;18.52;76.80;100775.72;4914087;29;20453;-74
2023/07/16 02:29:12;;;;;;;2.28;1.30;;;;;;;18.54;76.61;100785.13;4926308;29;20035;-76
2023/07/16 02:31:37;;;;;;;3.00;2.00;;;;;;;18.54;76.54;100800.59;4926684;29;20040;-73
2023/07/16 02:34:03;;;;;;;4.22;1.40;;;;;;;18.53;75.94;100807.13;4933122;28;20134;-73
2023/07/16 02:36:32;;;;;;;2.60;1.20;;;;;;;18.52;76.10;100802.84;4928618;29;20042;-73
2023/07/16 02:38:58;;;;;;;3.83;1.48;;;;;;;18.51;75.83;100790.41;4904330;29;20054;-74
2023/07/16 02:41:23;;;;;;;3.28;1.30;;;;;;;18.51;76.14;100791.19;4919532;29;20140;-73
2023/07/16 02:43:59;;;;;;;2.58;1.60;;;;;;;18.51;77.56;100801.25;4925751;29;20047;-74
2023/07/16 02:46:25;;;;;;;4.47;1.50;;;;;;;18.49;76.55;100798.03;4935870;28;20526;-71
2023/07/16 02:48:51;;;;;;;;;;;;;;;18.47;77.03;100784.81;4934750;29;20043;-73
2023/07/16 02:51:16;;;;;;;2.33;1.40;;;;;;;18.42;76.98;100776.03;4935507;28;19925;-73
2023/07/16 02:53:42;;;;;;;3.40;1.38;;;;;;;18.40;77.51;100783.72;4916840;28;20126;-73
2023/07/16 02:56:07;;;;;;;3.40;1.60;;;;;;;18.36;77.91;100772.72;4887403;29;20047;-73
2023/07/16 02:58:33;;;;;;;3.78;1.35;;;;;;;18.34;78.32;100774.94;4915990;29;20147;-73
2023/07/16 03:00:59;;;;;;;4.00;1.45;;;;;;;18.35;78.24;100786.56;4904857;29;20063;-73
2023/07/16 03:03:25;;;;;;;;;;;;;;;18.36;78.87;100793.63;4921283;28;20052;-71
2023/07/16 03:05:51;;;;;;;4.30;1.75;;;;;;;18.33;78.13;100789.63;4911460;29;19948;-72
2023/07/16 03:08:16;;;;;;;;;;;;;;;18.36;78.69;100785.47;4952448;28;20039;-72
2023/07/16 03:10:42;;;;;;;4.05;1.70;;;;;;;18.34;78.13;100779.56;4937837;28;20454;-71
2023/07/16 03:13:10;;;;;;;2.88;1.50;;;;;;;18.34;78.63;100774.13;4909561;29;20036;-74
2023/07/16 03:15:35;;;;;;;3.85;1.45;;;;;;;18.32;78.99;100765.53;4940453;28;20042;-72
2023/07/16 03:18:01;;;;;;;3.10;1.27;;;;;;;18.26;79.28;100765.69;4931684;29;20028;-71
2023/07/16 03:20:27;;;;;;;4.45;1.70;;;;;;;18.26;79.32;100763.00;4933019;29;20036;-73
2023/07/16 03:22:53;;;;;;;3.42;1.83;;;;;;;18.25;78.97;100766.81;4920201;29;20031;-72
2023/07/16 03:25:19;;;;;;;2.63;1.45;;;;;;;18.27;78.82;100786.25;4916377;29;20039;-72
2023/07/16 03:27:46;;;;;;;2.72;1.83;;;;;;;18.26;78.62;100781.97;4933419;28;20035;-72
2023/07/16 03:30:12;;;;;;;5.00;1.50;;;;;;;18.25;79.07;100788.50;4920779;29;20456;-72
2023/07/16 03:32:38;;;;;;;4.75;1.58;;;;;;;18.21;79.37;100787.53;4940212;29;20047;-72
2023/07/16 03:35:05;;;;;;;6.18;1.50;;;;;;;18.19;80.00;100784.34;4936690;29;20098;-71
2023/07/16 03:37:30;;;;;;;4.38;1.60;;;;;;;18.16;79.88;100790.44;4917032;29;20044;-71
2023/07/16 03:39:56;;;;;;;2.38;1.20;;;;;;;18.16;79.39;100793.16;4932090;29;20059;-71
2023/07/16 03:42:22;;;;;;;4.70;1.60;;;;;;;18.18;79.77;100785.47;4939364;28;20501;-73
2023/07/16 03:44:50;;;;;;;5.60;2.20;;;;;;;18.17;79.91;100794.72;4915949;29;20054;-72
2023/07/16 03:47:15;;;;;;;3.13;1.60;;;;;;;18.19;79.54;100806.03;4939466;29;20028;-71
2023/07/16 03:49:41;;;;;;;3.55;1.92;;;;;;;18.19;79.21;100803.34;4920329;29;20149;-74
2023/07/16 03:52:07;;;;;;;3.03;1.65;;;;;;;18.18;79.11;100800.94;4930159;29;20745;-72
2023/07/16 03:54:33;;;;;;;3.85;1.67;;;;;;;18.17;79.21;100794.72;4925403;29;20043;-73
2023/07/16 03:56:59;;;;;;;4.07;1.95;;;;;;;18.15;79.22;100815.91;4929217;29;20048;-73
2023/07/16 03:59:26;;;;;;;3.08;1.40;;;;;;;18.11;79.58;100814.97;4917928;29;20172;-73
2023/07/16 04:01:52;;;;;;;4.60;2.05;;;;;;;18.11;79.46;100827.72;4903408;29;20047;-72
2023/07/16 04:04:17;;;;;;;3.17;1.90;;;;;;;18.12;79.42;100830.13;4942420;28;20039;-72
2023/07/16 04:06:43;;;;;;;3.78;1.90;;;;;;;18.11;79.66;100839.38;4924526;29;20039;-73
2023/07/16 04:09:08;;;;;;;3.35;1.83;;;;;;;18.10;79.75;100839.69;4930452;29;20227;-71
2023/07/16 04:11:34;;;;;;;2.80;1.65;;;;;;;18.12;79.86;100859.94;4901626;29;20535;-73
2023/07/16 04:13:59;;;;;;;5.28;1.80;;;;;;;18.11;79.58;100844.78;4921050;28;20143;-73
2023/07/16 04:16:25;;;;;;;3.08;1.80;;;;;;;18.13;79.67;100863.44;4935969;29;20038;-76
2023/07/16 04:18:51;;;;;;;5.15;2.30;;;;;;;18.09;79.51;100866.00;4929780;29;20130;-71
2023/07/16 04:21:16;;;;;;;4.57;1.90;;;;;;;18.12;79.44;100868.06;4937740;29;20101;-72
2023/07/16 04:23:43;;;;;;;5.10;2.45;;;;;;;18.10;79.60;100866.78;4927859;29;20048;-70
2023/07/16 04:26:08;;;;;;;5.07;1.75;;;;;;;18.10;79.45;100862.16;4906243;29;20051;-72
2023/07/16 04:28:34;;;;;;;4.68;1.92;;;;;;;18.08;79.66;100864.38;4935302;29;20035;-72
2023/07/16 04:30:59;;;;;;;5.60;2.35;;;;;;;18.06;79.50;100861.19;4909328;29;20111;-72
2023/07/16 04:33:25;;;;;;;4.03;1.70;;;;;;;18.06;79.41;100865.81;4949321;28;20496;-70
2023/07/16 04:35:52;;;;;;;4.20;2.08;;;;;;;18.05;79.46;100875.88;4926599;29;20035;-75
2023/07/16 04:38:18;;;;;;;5.15;2.05;;;;;;;18.06;79.60;100869.31;4935383;29;20045;-71
2023/07/16 04:40:44;;;;;;;4.60;1.80;;;;;;;18.09;79.33;100876.03;4931521;29;20126;-71
2023/07/16 04:43:10;;;;;;;3.60;1.38;;;;;;;18.09;79.08;100881.47;4934040;29;20118;-72
2023/07/16 04:45:36;;;;;;;;;;;;;;;18.10;79.50;100875.72;4931030;29;20475;-73
2023/07/16 04:48:02;;;;;;;4.38;2.08;;;;;;;18.07;78.92;100868.19;4941970;28;19925;-72
2023/07/16 04:50:28;;;;;;;3.63;1.77;;;;;;;18.12;79.10;100873.47;4934383;29;20031;-72
2023/07/16 04:52:54;;;;;;;;;;;;;;;18.16;79.39;100869.03;4902800;29;20027;-73
2023/07/16 04:55:19;;;;;;;4.63;1.73;;;;;;;18.20;78.64;100872.69;4932395;29;20463;-71
2023/07/16 04:57:45;;;;;;;3.95;1.88;;;;;;;18.24;78.32;100872.88;4914722;29;20028;-72
2023/07/16 05:00:11;;;;;;;;;;;;;;;18.27;78.18;100878.44;4919908;29;20043;-73
2023/07/16 05:02:37;;;;;;;5.05;1.70;;;;;;;18.27;77.69;100883.06;4930874;29;19925;-72
2023/07/16 05:05:03;;;;;;;5.38;1.73;;;;;;;18.33;77.88;100881.00;4910244;28;20047;-72
2023/07/16 05:07:30;;;;;;;4.70;1.80;;;;;;;18.37;77.72;100871.13;4921117;29;20153;-72
2023/07/16 05:09:56;;;;;;;4.50;1.75;;;;;;;18.40;77.69;100870.47;4930876;29;20033;-72
2023/07/16 05:12:21;;;;;;;3.70;1.80;;;;;;;18.44;77.77;100877.66;4922044;29;20768;-73
2023/07/16 05:14:47;;;;;;;;;;;;;;;18.45;77.86;100890.09;4947413;28;20067;-73
2023/07/16 05:17:14;;;;;;;3.88;1.60;;;;;;;18.54;77.43;100892.81;4920417;29;19926;-73
2023/07/16 05:19:40;;;;;;;5.22;1.85;;;;;;;18.58;77.04;100891.06;4936405;29;20031;-73
2023/07/16 05:22:06;;;;;;;5.07;1.80;;;;;;;18.63;76.29;100892.78;4923865;29;20046;-71
2023/07/16 05:24:32;;;;;;;5.57;2.45;;;;;;;18.65;76.58;100904.94;4917760;29;20058;-72
2023/07/16 05:26:58;;;;;;;4.78;2.17;;;;;;;18.68;76.64;100909.75;4925656;29;20035;-72
2023/07/16 05:29:24;;;;;;;2.90;1.45;;;;;;;18.71;76.74;100908.31;4919609;29;20106;-73
2023/07/16 05:31:49;;;;;;;;;;;;;;;18.74;76.43;100905.75;4923994;29;20449;-73
2023/07/16 05:34:15;;;;;;;3.38;1.67;;;;;;;18.77;76.24;100904.31;4915565;29;19922;-72
2023/07/16 05:36:42;;;;;;;3.78;1.77;;;;;;;18.84;75.70;100906.56;4931525;29;20036;-73
2023/07/16 05:39:09;;;;;;;3.13;1.98;;;;;;;18.92;75.71;100909.25;4923777;29;20036;-73
2023/07/16 05:41:35;;;;;;;3.67;1.50;;;;;;;18.89;75.23;100912.59;4939346;28;20039;-71
2023/07/16 05:44:00;;;;;;;5.40;2.15;;;;;;;18.90;75.48;100914.22;4922610;29;20394;-72
2023/07/16 05:46:27;;;;;;;3.33;1.70;;;;;;;18.93;74.92;100918.97;4929375;29;20087;-71
2023/07/16 05:48:53;;;;;;;4.38;1.83;;;;;;;19.01;75.32;100934.44;4920492;29;20027;-72
2023/07/16 05:51:18;;;;;;;6.55;1.95;;;;;;;19.16;74.89;100929.63;4933845;28;20990;-72
2023/07/16 05:53:44;;;;;;;;;;;;;;;19.26;74.81;100930.09;4939216;28;20126;-72
2023/07/16 05:56:09;;;;;;;4.43;1.58;;;;;;;19.38;73.66;100934.88;4929697;29;19929;-72
2023/07/16 05:58:35;;;;;;;4.88;1.67;;;;;;;19.49;72.78;100925.22;4939087;29;20058;-74
2023/07/16 06:01:00;;;;;;;5.43;2.42;;;;;;;19.66;71.88;100934.50;4930467;29;20464;-72
2023/07/16 06:03:26;;;;;;;;;;;;;;;19.72;70.12;100927.75;4933859;28;20083;-72
2023/07/16 06:05:52;;;;;;;3.75;2.10;;;;;;;19.72;70.46;100925.84;4910180;29;19918;-73
2023/07/16 06:08:18;;;;;;;6.22;1.90;;;;;;;19.77;69.10;100931.06;4935758;29;20079;-73
2023/07/16 06:10:44;;;;;;;4.55;1.73;;;;;;;19.79;68.81;100922.59;4925085;29;20094;-74
2023/07/16 06:13:09;;;;;;;6.13;1.85;;;;;;;19.84;69.69;100930.56;4930562;29;20050;-72
2023/07/16 06:15:36;;;;;;;3.63;1.80;;;;;;;19.97;67.62;100942.31;4919087;29;20071;-72
2023/07/16 06:18:01;;;;;;;4.07;1.95;;;;;;;20.05;67.31;100938.75;4925617;29;20050;-71
2023/07/16 06:20:28;;;;;;;4.85;1.95;;;;;;;20.13;66.37;100935.22;4922290;29;20039;-72
2023/07/16 06:22:54;;;;;;;6.07;1.95;;;;;;;20.24;65.40;100935.59;4905427;29;20039;-72
2023/07/16 06:25:19;;;;;;;5.72;2.00;;;;;;;20.27;64.61;100941.19;4922156;29;20505;-72
2023/07/16 06:27:45;;;;;;;3.58;1.50;;;;;;;20.31;65.20;100936.69;4932801;29;20779;-72
2023/07/16 06:30:12;;;;;;;5.65;1.88;;;;;;;20.43;64.40;100946.84;4911687;29;20558;-72
2023/07/16 06:32:37;;;;;;;3.47;1.52;;;;;;;20.44;65.99;100953.88;4900814;29;20036;-71
2023/07/16 06:35:03;;;;;;;4.88;2.00;;;;;;;20.54;64.87;100952.72;4943875;28;20035;-72
2023/07/16 06:37:29;;;;;;;3.88;1.55;;;;;;;20.58;65.52;100950.91;4929512;29;20035;-72
2023/07/16 06:39:55;;;;;;;4.43;2.25;;;;;;;20.66;65.24;100960.94;4908437;29;20099;-73
2023/07/16 06:42:21;;;;;;;4.50;2.00;;;;;;;20.66;63.41;100959.03;4916489;29;20035;-72
2023/07/16 06:44:48;;;;;;;3.55;1.83;;;;;;;20.71;63.59;100955.31;4927313;29;20042;-73
2023/07/16 06:47:13;;;;;;;4.68;1.90;;;;;;;20.71;63.75;100955.31;4928620;29;20027;-73
2023/07/16 06:49:39;;;;;;;5.00;1.90;;;;;;;20.85;59.58;100961.25;4919678;29;20036;-73
2023/07/16 06:52:05;;;;;;;4.70;2.33;;;;;;;20.89;60.67;100956.75;4912347;29;20056;-74
2023/07/16 06:54:31;;;;;;;5.95;2.00;;;;;;;20.93;60.80;100965.88;4916620;29;20051;-73
2023/07/16 06:56:56;;;;;;;5.43;2.50;;;;;;;20.98;61.79;100968.34;4927930;29;20050;-73
2023/07/16 06:59:24;;;;;;;5.88;2.40;;;;;;;20.95;60.25;100966.31;4931658;29;20039;-72
2023/07/16 07:01:51;;;;;;;9.95;2.50;;;;;;;21.02;60.45;100970.44;4915664;29;20067;-71
2023/07/16 07:04:17;;;;;;;6.65;2.70;;;;;;;21.03;60.30;100972.00;4935645;28;20046;-75
2023/07/16 07:06:42;;;;;;;7.50;2.30;;;;;;;21.12;60.18;100970.00;4938018;29;20047;-72
2023/07/16 07:09:09;;;;;;;6.85;2.20;;;;;;;21.18;58.96;100971.38;4926541;29;20576;-73
2023/07/16 07:11:34;;;;;;;5.70;2.33;;;;;;;21.23;58.70;100971.19;4940661;29;20035;-73
2023/07/16 07:14:00;;;;;;;5.45;2.50;;;;;;;21.29;58.34;100971.81;4919128;28;20043;-73
2023/07/16 07:16:26;;;;;;;5.63;2.03;;;;;;;21.36;59.10;100981.00;4932299;29;20039;-73
2023/07/16 07:18:51;;;;;;;7.47;2.30;;;;;;;21.44;60.01;100971.94;4936150;29;20035;-72
2023/07/16 07:21:17;;;;;;;4.85;2.13;;;;;;;21.56;60.37;100970.38;4916101;29;20031;-73
2023/07/16 07:23:43;;;;;;;6.47;2.70;;;;;;;21.59;58.56;100972.41;4919291;28;20047;-71
2023/07/16 07:26:08;;;;;;;7.00;2.63;;;;;;;21.59;57.79;100973.22;4909815;29;20039;-73
2023/07/16 07:28:34;;;;;;;7.55;2.70;;;;;;;21.66;57.81;100972.66;4921364;29;20190;-72
2023/07/16 07:31:00;;;;;;;4.85;2.63;;;;;;;21.70;58.11;100968.13;4909462;29;20412;-71
2023/07/16 07:33:26;;;;;;;6.35;2.33;;;;;;;21.76;58.47;100972.22;4930766;29;20069;-71
2023/07/16 07:35:55;;;;;;;6.10;2.28;;;;;;;21.77;57.35;100968.38;4935497;29;20038;-74
2023/07/16 07:38:22;;;;;;;7.50;2.47;;;;;;;21.90;59.14;100974.63;4938631;29;20039;-73
2023/07/16 07:40:48;;;;;;;7.15;2.30;;;;;;;21.78;57.46;100976.19;4938611;29;20094;-73
2023/07/16 07:43:14;;;;;;;5.68;2.35;;;;;;;21.62;57.71;100967.09;4937167;29;20075;-74
2023/07/16 07:45:39;;;;;;;5.47;2.00;;;;;;;21.62;58.09;100977.22;4937882;29;20150;-73
2023/07/16 07:48:05;;;;;;;6.93;2.40;;;;;;;21.51;59.95;100974.13;4914989;29;20126;-72
2023/07/16 07:50:31;;;;;;;6.15;2.42;;;;;;;21.46;58.39;100977.84;4925591;29;20073;-73
2023/07/16 07:52:59;;;;;;;9.38;2.65;;;;;;;21.58;58.11;100976.28;4929946;29;20058;-72
2023/07/16 07:55:24;;;;;;;6.28;2.13;;;;;;;21.49;59.16;100969.00;4933850;28;20503;-73
2023/07/16 07:57:54;;;;;;;8.13;2.35;;;;;;;21.66;58.22;100967.22;4914817;29;20035;-72
2023/07/16 08:00:20;;;;;;;4.75;2.13;;;;;;;21.89;59.22;100975.78;4947271;28;20046;-73
2023/07/16 08:02:45;;;;;;;6.20;2.60;;;;;;;21.81;57.14;100980.16;4935921;29;20810;-71
2023/07/16 08:05:11;;;;;;;7.18;2.70;;;;;;;21.79;56.80;100982.44;4909675;28;20042;-76
2023/07/16 08:07:45;;;;;;;6.30;2.00;;;;;;;21.71;57.40;100988.81;4934750;29;20078;-73
2023/07/16 08:10:11;;;;;;;6.57;2.38;;;;;;;21.59;57.65;100988.78;4914103;29;20396;-74
2023/07/16 08:12:37;;;;;;;5.20;1.92;;;;;;;21.54;57.32;100992.53;4932804;29;20207;-75
2023/07/16 08:15:07;;;;;;;6.45;2.38;;;;;;;21.59;57.29;100988.78;4895528;29;20504;-72
2023/07/16 08:17:34;;;;;;;5.57;2.20;;;;;;;21.77;58.07;100985.50;4939785;29;20035;-71
2023/07/16 08:19:59;;;;;;;5.40;2.42;;;;;;;21.95;55.91;100983.38;4925049;29;21406;-72
2023/07/16 08:22:26;;;;;;;6.55;2.03;;;;;;;22.07;53.78;100974.38;4950479;28;20505;-72
2023/07/16 08:24:56;;;;;;;5.47;2.33;;;;;;;22.20;55.74;100972.47;4915835;29;20087;-72
2023/07/16 08:27:22;;;;;;;6.07;2.17;;;;;;;22.25;53.82;100983.16;4933885;29;20047;-74
2023/07/16 08:29:47;;;;;;;7.25;2.50;;;;;;;22.29;53.53;100976.69;4901792;29;20413;-73
2023/07/16 08:32:13;;;;;;;7.28;2.13;;;;;;;22.19;54.38;100984.53;4936550;29;20677;-72
2023/07/16 08:34:39;;;;;;;6.78;2.63;;;;;;;22.13;54.13;100983.16;4938687;28;20047;-74
2023/07/16 08:37:05;;;;;;;3.78;2.20;;;;;;;22.00;57.34;100977.69;4901511;29;20044;-75
2023/07/16 08:39:32;;;;;;;7.72;2.13;;;;;;;21.83;54.45;100975.19;4916257;29;20031;-72
2023/07/16 08:41:58;;;;;;;6.97;2.55;;;;;;;21.59;54.43;100973.22;4913620;29;20497;-73
2023/07/16 08:44:23;;;;;;;4.40;1.98;;;;;;;21.51;54.89;100983.09;4917170;29;20074;-73
2023/07/16 08:46:51;;;;;;;5.53;2.20;;;;;;;21.45;55.13;100992.59;4895876;29;20042;-73
2023/07/16 08:49:18;;;;;;;5.00;2.15;;;;;;;21.68;54.76;100978.59;4936656;29;20043;-73
2023/07/16 08:51:47;;;;;;;9.32;2.30;;;;;;;21.92;55.52;100980.53;4918257;29;20047;-73
2023/07/16 08:54:15;;;;;;;5.22;2.47;;;;;;;21.84;55.63;100995.06;4929149;28;20043;-74
2023/07/16 08:56:43;;;;;;;4.07;2.13;;;;;;;21.81;54.42;100988.34;4911004;29;20524;-75
2023/07/16 08:59:10;;;;;;;5.82;3.35;;;;;;;21.63;53.58;100986.97;4934524;23;20058;-81
2023/07/16 09:01:37;;;;;;;7.63;2.25;;;;;;;21.72;53.92;100993.91;4932637;29;20078;-77
2023/07/16 09:04:03;;;;;;;7.75;3.00;;;;;;;22.02;53.86;100999.97;4947670;28;20569;-82
2023/07/16 09:06:28;;;;;;;6.28;2.83;;;;;;;22.35;52.38;100993.59;4960920;28;20027;-84
2023/07/16 09:08:55;;;;;;;5.00;2.55;;;;;;;22.39;52.41;101004.63;4966353;28;20038;-80
2023/07/16 09:11:22;;;;;;;8.25;2.90;;;;;;;22.27;48.42;101008.97;4933329;28;20027;-79
2023/07/16 09:13:48;;;;;;;7.78;3.33;;;;;;;22.24;47.45;101000.69;4937631;28;20043;-83
2023/07/16 09:16:17;;;;;;;6.22;3.13;;;;;;;22.60;50.69;101002.56;4937512;28;20031;-82
2023/07/16 09:18:43;;;;;;;6.72;2.72;;;;;;;22.84;47.64;101015.38;4953744;28;20051;-77
2023/07/16 09:21:10;;;;;;;9.95;3.85;;;;;;;22.95;47.67;101026.59;4947011;28;20399;-83
2023/07/16 09:23:36;;;;;;;5.95;3.22;;;;;;;22.99;46.68;101017.38;4969637;28;20097;-79
2023/07/16 09:26:05;;;;;;;6.00;3.15;;;;;;;23.10;48.02;101017.69;4933888;28;20047;-79
2023/07/16 09:28:32;;;;;;;9.07;3.13;;;;;;;23.23;46.88;101011.00;4969007;28;20567;-80
2023/07/16 09:31:05;;;;;;;6.18;3.15;;;;;;;23.25;47.75;101019.69;4933474;29;20114;-81
2023/07/16 09:33:31;;;;;;;6.18;3.40;;;;;;;23.07;46.80;101027.38;4948875;28;20040;-85
2023/07/16 09:35:56;;;;;;;5.32;2.72;;;;;;;23.07;45.79;101029.31;4933908;29;20755;-80
2023/07/16 09:38:24;;;;;;;5.45;2.80;;;;;;;23.14;46.23;101030.28;4929840;28;20047;-82
2023/07/16 09:40:51;;;;;;;7.55;3.28;;;;;;;23.15;46.31;101031.88;4969479;28;20533;-86
2023/07/16 09:43:17;;;;;;;6.50;2.92;;;;;;;23.28;47.76;101040.03;4935404;28;20065;-83
2023/07/16 09:45:43;;;;;;;8.43;3.40;;;;;;;23.12;47.52;101048.97;4952901;28;20034;-84
2023/07/16 09:48:09;;;;;;;7.35;3.50;;;;;;;22.77;46.84;101047.91;4949215;28;20031;-79
2023/07/16 09:50:36;;;;;;;6.18;3.33;;;;;;;22.60;46.53;101047.03;4920071;28;20050;-79
2023/07/16 09:53:03;;;;;;;6.57;2.88;;;;;;;22.74;46.78;101054.03;4948301;28;20057;-83
2023/07/16 09:55:33;;;;;;;5.60;3.05;;;;;;;22.93;47.33;101057.00;4942457;28;20035;-81
2023/07/16 09:58:02;;;;;;;9.18;3.30;;;;;;;23.21;47.48;101056.22;4966578;28;20082;-81
2023/07/16 10:00:29;;;;;;;8.32;3.40;;;;;;;23.36;48.39;101052.75;4945234;28;20083;-87
2023/07/16 10:02:57;;;;;;;10.07;3.63;;;;;;;23.36;45.96;101058.22;4946113;28;20064;-81
2023/07/16 10:05:26;;;;;;;12.23;2.85;;;;;;;23.47;48.76;101056.56;4962124;28;20034;-78
2023/07/16 10:07:52;;;;;;;5.93;3.03;;;;;;;23.35;45.56;101062.88;4933394;29;20764;-81
2023/07/16 10:10:19;;;;;;;6.75;3.50;;;;;;;23.07;47.09;101062.06;4952179;28;20031;-80
2023/07/16 10:13:01;;;;;;;5.72;3.03;;;;;;;23.08;48.11;101067.19;4948092;28;20043;-79
2023/07/16 10:15:29;;;;;;;5.93;2.92;;;;;;;23.38;48.56;101075.06;4929762;28;20127;-77
2023/07/16 10:17:55;;;;;;;7.45;3.50;;;;;;;23.29;46.73;101072.47;4941384;28;20035;-77
2023/07/16 10:20:42;;;;;;;8.98;3.47;;;;;;;23.38;47.95;101064.94;4929240;28;20050;-75
2023/07/16 10:23:13;;;;;;;8.95;3.88;;;;;;;23.54;47.51;101084.09;4944158;28;20027;-78
2023/07/16 10:25:39;;;;;;;5.55;3.33;;;;;;;23.24;46.44;101078.19;4947239;28;20492;-77
2023/07/16 10:28:05;;;;;;;5.50;2.95;;;;;;;22.98;45.66;101084.06;4964476;28;20038;-77
2023/07/16 10:30:32;;;;;;;6.75;3.20;;;;;;;22.67;46.28;101092.06;4960205;28;20038;-74
2023/07/16 10:33:00;;;;;;;7.43;3.53;;;;;;;22.93;46.31;101080.78;4930182;28;20098;-76
2023/07/16 10:35:25;;;;;;;6.80;2.92;;;;;;;22.86;47.36;101089.56;4963664;28;20038;-76
2023/07/16 10:37:51;;;;;;;8.82;3.60;;;;;;;23.08;47.82;101080.06;4945866;28;20040;-76
2023/07/16 10:40:17;;;;;;;6.72;3.72;;;;;;;23.12;48.24;101087.22;4928891;28;20699;-76
2023/07/16 10:42:43;;;;;;;5.43;2.47;;;;;;;22.90;47.57;101106.84;4968516;28;20722;-77
2023/07/16 10:45:10;;;;;;;6.43;3.95;;;;;;;23.17;47.19;101105.31;4947263;28;20067;-77
2023/07/16 10:47:38;;;;;;;6.20;2.92;;;;;;;23.11;45.75;101110.22;4964229;28;20550;-79
2023/07/16 10:50:07;;;;;;;6.85;3.30;;;;;;;23.22;47.95;101105.06;4927868;28;20117;-76
2023/07/16 10:52:34;;;;;;;6.22;3.70;;;;;;;23.30;48.22;101115.06;4930088;28;20117;-77
2023/07/16 10:55:00;;;;;;;11.35;3.88;;;;;;;23.38;47.05;101105.13;4947572;28;20047;-78
2023/07/16 10:57:27;;;;;;;5.28;3.35;;;;;;;23.23;46.31;101103.13;4947330;28;20054;-76
2023/07/16 10:59:57;;;;;;;8.15;3.60;;;;;;;23.19;46.75;101116.69;4969048;28;20504;-76
2023/07/16 11:02:24;;;;;;;5.93;3.35;;;;;;;23.39;49.44;101107.50;4944763;28;20055;-79
2023/07/16 11:04:57;;;;;;;11.88;3.50;;;;;;;23.35;48.96;101114.00;4967669;28;20038;-76
2023/07/16 11:07:23;;;;;;;6.57;3.55;;;;;;;23.19;47.31;101107.69;4945822;28;20040;-77
2023/07/16 11:09:51;;;;;;;7.20;3.22;;;;;;;23.20;48.63;101117.47;4948807;28;20051;-79
2023/07/16 11:12:21;;;;;;;9.30;3.40;;;;;;;23.28;47.31;101111.06;4930946;28;20046;-76
2023/07/16 11:14:52;;;;;;;5.97;3.60;;;;;;;23.47;48.78;101113.97;4952387;28;20447;-76
2023/07/16 11:17:23;;;;;;;8.05;3.55;;;;;;;23.51;46.86;101105.88;4950057;28;20038;-76
2023/07/16 11:19:51;;;;;;;7.15;2.80;;;;;;;23.47;48.83;101111.25;4960820;28;20042;-75
2023/07/16 11:22:17;;;;;;;8.32;3.75;;;;;;;23.56;50.34;101117.34;4948070;28;20031;-77
2023/07/16 11:24:45;;;;;;;5.65;3.35;;;;;;;23.63;49.78;101103.91;4967502;28;20046;-78